createdAt,value
2018-08-16T00:01:52.434Z,5.30
2018-08-16T00:05:45.435Z,5.20
2018-08-16T00:08:13.922Z,5.50
2018-08-16T00:10:42.405Z,5.33
2018-08-16T00:13:11.396Z,6.20
2018-08-16T00:15:39.871Z,5.00
2018-08-16T00:18:12.609Z,5.58
2018-08-16T00:20:41.453Z,6.55
2018-08-16T00:23:10.590Z,5.15
2018-08-16T00:25:39.060Z,5.55
2018-08-16T00:28:07.564Z,5.12
2018-08-16T00:30:36.058Z,5.50
2018-08-16T00:33:04.681Z,5.83
2018-08-16T00:35:33.169Z,5.25
2018-08-16T00:38:02.034Z,5.25
2018-08-16T00:40:30.878Z,5.00
2018-08-16T00:43:00.330Z,5.95
2018-08-16T00:45:28.805Z,5.30
2018-08-16T00:47:57.325Z,5.62
2018-08-16T00:50:26.482Z,5.58
2018-08-16T00:52:55.929Z,5.83
2018-08-16T00:55:25.088Z,5.40
2018-08-16T00:57:53.904Z,5.85
2018-08-16T01:00:22.429Z,5.45
2018-08-16T01:02:51.243Z,5.65
2018-08-16T01:05:20.066Z,5.30
2018-08-16T01:07:48.901Z,5.22
2018-08-16T01:10:17.706Z,5.78
2018-08-16T01:12:46.205Z,5.60
2018-08-16T01:15:16.384Z,5.65
2018-08-16T01:17:45.314Z,6.03
2018-08-16T01:20:13.826Z,5.58
2018-08-16T01:22:42.798Z,5.08
2018-08-16T01:25:12.357Z,5.80
2018-08-16T01:27:41.171Z,5.55
2018-08-16T01:30:10.228Z,5.55
2018-08-16T01:32:39.049Z,5.53
2018-08-16T01:35:08.636Z,5.50
2018-08-16T01:37:37.593Z,6.40
2018-08-16T01:40:06.830Z,5.80
2018-08-16T01:42:35.739Z,5.60
2018-08-16T01:45:04.705Z,5.40
2018-08-16T01:47:33.527Z,6.53
2018-08-16T01:50:02.714Z,5.25
2018-08-16T01:52:32.161Z,6.83
2018-08-16T01:55:00.673Z,5.40
2018-08-16T01:57:29.156Z,6.15
2018-08-16T01:59:57.995Z,5.70
2018-08-16T02:02:26.818Z,6.08
2018-08-16T02:04:55.624Z,6.20
2018-08-16T02:07:24.441Z,5.40
2018-08-16T02:09:52.949Z,5.60
2018-08-16T02:12:22.112Z,5.37
2018-08-16T02:14:51.022Z,6.45
2018-08-16T02:17:19.965Z,6.97
2018-08-16T02:19:48.779Z,6.12
2018-08-16T02:22:17.585Z,6.55
2018-08-16T02:24:46.066Z,5.97
2018-08-16T02:27:14.535Z,6.35
2018-08-16T02:29:43.357Z,6.37
2018-08-16T02:32:11.837Z,6.10
2018-08-16T02:34:40.306Z,6.83
2018-08-16T02:37:08.804Z,5.60
2018-08-16T02:39:38.599Z,5.60
2018-08-16T02:42:07.079Z,6.53
2018-08-16T02:44:35.944Z,6.65
2018-08-16T02:47:04.776Z,6.58
2018-08-16T02:49:34.230Z,6.30
2018-08-16T02:52:02.853Z,5.60
2018-08-16T02:54:32.734Z,7.20
2018-08-16T02:57:02.471Z,5.83
2018-08-16T02:59:31.346Z,6.53
2018-08-16T03:01:59.824Z,5.90
2018-08-16T03:04:28.337Z,5.87
2018-08-16T03:06:57.434Z,6.33
2018-08-16T03:09:25.913Z,6.37
2018-08-16T03:11:54.398Z,5.55
2018-08-16T03:14:23.582Z,8.83
2018-08-16T03:16:52.071Z,6.95
2018-08-16T03:19:20.924Z,6.92
2018-08-16T03:21:49.770Z,6.28
2018-08-16T03:24:18.282Z,6.17
2018-08-16T03:26:46.796Z,5.92
2018-08-16T03:29:15.966Z,6.85
2018-08-16T03:31:44.793Z,6.85
2018-08-16T03:34:17.278Z,5.97
2018-08-16T03:36:45.948Z,6.25
2018-08-16T03:39:14.769Z,6.15
2018-08-16T03:41:43.639Z,6.17
2018-08-16T03:44:12.618Z,7.08
2018-08-16T03:46:41.106Z,6.05
2018-08-16T03:49:10.255Z,7.00
2018-08-16T03:51:39.438Z,6.22
2018-08-16T03:54:07.941Z,6.12
2018-08-16T03:56:36.941Z,6.08
2018-08-16T03:59:05.753Z,6.00
2018-08-16T04:01:34.618Z,6.12
2018-08-16T04:04:03.466Z,6.87
2018-08-16T04:06:32.289Z,6.75
2018-08-16T04:09:01.111Z,6.70
2018-08-16T04:11:29.906Z,4.92
2018-08-16T04:13:58.442Z,5.90
2018-08-16T04:16:27.296Z,7.65
2018-08-16T04:18:55.806Z,5.65
2018-08-16T04:21:25.646Z,6.17
2018-08-16T04:23:54.152Z,6.78
2018-08-16T04:26:23.161Z,6.30
2018-08-16T04:28:52.010Z,6.08
2018-08-16T04:31:20.846Z,5.87
2018-08-16T04:33:49.363Z,5.85
2018-08-16T04:36:18.436Z,5.67
2018-08-16T04:38:47.025Z,6.47
2018-08-16T04:41:15.510Z,6.92
2018-08-16T04:43:44.687Z,6.10
2018-08-16T04:46:14.244Z,6.85
2018-08-16T04:48:44.165Z,6.53
2018-08-16T04:51:13.661Z,7.35
2018-08-16T04:53:43.094Z,6.25
2018-08-16T04:56:14.601Z,7.05
2018-08-16T04:58:47.677Z,6.92
2018-08-16T05:01:20.704Z,6.30
2018-08-16T05:03:50.850Z,6.65
2018-08-16T05:06:19.802Z,6.45
2018-08-16T05:08:51.302Z,8.35
2018-08-16T05:11:20.825Z,7.05
2018-08-16T05:13:50.774Z,7.53
2018-08-16T05:16:20.060Z,7.17
2018-08-16T05:18:52.478Z,7.60
2018-08-16T05:21:23.442Z,7.03
2018-08-16T05:23:56.028Z,6.75
2018-08-16T05:26:25.074Z,6.97
2018-08-16T05:28:54.351Z,7.62
2018-08-16T05:31:23.385Z,6.37
2018-08-16T05:33:52.217Z,7.10
2018-08-16T05:36:22.001Z,6.12
2018-08-16T05:38:50.535Z,6.30
2018-08-16T05:41:19.430Z,6.15
2018-08-16T05:43:48.986Z,6.75
2018-08-16T05:46:17.519Z,6.00
2018-08-16T05:48:47.062Z,6.25
2018-08-16T05:51:15.961Z,5.75
2018-08-16T05:53:44.469Z,6.60
2018-08-16T05:56:13.302Z,5.90
2018-08-16T05:58:42.162Z,6.33
2018-08-16T06:01:11.029Z,6.72
2018-08-16T06:03:39.892Z,6.17
2018-08-16T06:06:09.339Z,6.17
2018-08-16T06:08:38.804Z,8.50
2018-08-16T06:11:07.678Z,8.95
2018-08-16T06:13:36.484Z,5.42
2018-08-16T06:16:05.760Z,8.68
2018-08-16T06:18:34.289Z,6.00
2018-08-16T06:21:02.867Z,12.07
2018-08-16T06:23:31.709Z,5.87
2018-08-16T06:26:00.541Z,5.37
2018-08-16T06:28:29.081Z,6.12
2018-08-16T06:30:57.969Z,5.33
2018-08-16T06:33:26.609Z,6.05
2018-08-16T06:35:55.486Z,5.92
2018-08-16T06:38:23.982Z,5.92
2018-08-16T06:40:52.802Z,5.62
2018-08-16T06:43:21.331Z,5.20
2018-08-16T06:45:50.787Z,5.83
2018-08-16T06:48:19.293Z,5.30
2018-08-16T06:50:48.757Z,5.00
2018-08-16T06:53:17.587Z,5.62
2018-08-16T06:55:46.429Z,5.80
2018-08-16T06:58:15.294Z,5.05
2018-08-16T07:00:46.796Z,4.65
2018-08-16T07:03:15.325Z,4.85
2018-08-16T07:05:43.831Z,5.00
2018-08-16T07:08:12.329Z,5.20
2018-08-16T07:10:41.201Z,5.37
2018-08-16T07:13:09.742Z,5.62
2018-08-16T07:15:38.282Z,4.55
2018-08-16T07:18:06.780Z,4.20
2018-08-16T07:20:35.302Z,4.45
2018-08-16T07:23:03.814Z,4.75
2018-08-16T07:25:33.084Z,4.30
2018-08-16T07:28:01.571Z,4.30
2018-08-16T07:30:30.729Z,4.60
2018-08-16T07:32:59.549Z,4.55
2018-08-16T07:35:28.041Z,3.90
2018-08-16T07:37:56.870Z,4.10
2018-08-16T07:40:25.403Z,5.17
2018-08-16T07:42:54.573Z,4.35
2018-08-16T07:45:23.426Z,5.45
2018-08-16T07:47:52.250Z,3.83
2018-08-16T07:50:21.133Z,4.15
2018-08-16T07:52:49.633Z,4.53
2018-08-16T07:55:18.112Z,3.80
2018-08-16T07:57:46.982Z,3.67
2018-08-16T08:00:19.235Z,3.52
2018-08-16T08:02:48.654Z,3.75
2018-08-16T08:05:17.236Z,3.70
2018-08-16T08:07:45.512Z,3.93
2018-08-16T08:10:13.744Z,3.47
2018-08-16T08:12:42.580Z,3.90
2018-08-16T08:15:12.995Z,2.70
2018-08-16T08:17:41.254Z,3.50
2018-08-16T08:20:11.692Z,3.30
2018-08-16T08:22:41.011Z,2.30
2018-08-16T08:25:09.273Z,2.97
2018-08-16T08:27:37.837Z,2.63
2018-08-16T08:30:08.469Z,2.87
2018-08-16T08:32:36.720Z,2.83
2018-08-16T08:35:05.857Z,2.80
2018-08-16T08:37:45.705Z,3.43
2018-08-16T08:40:14.258Z,3.27
2018-08-16T08:42:42.888Z,2.40
2018-08-16T08:45:12.234Z,3.10
2018-08-16T08:47:47.544Z,2.87
2018-08-16T08:50:15.855Z,2.93
2018-08-16T08:52:44.533Z,2.73
2018-08-16T08:55:24.499Z,2.70
2018-08-16T08:58:04.077Z,2.57
2018-08-16T09:00:32.638Z,2.80
2018-08-16T09:03:01.222Z,2.50
2018-08-16T09:05:29.549Z,2.10
2018-08-16T09:07:58.137Z,3.00
2018-08-16T09:11:06.782Z,2.67
2018-08-16T09:13:46.562Z,2.80
2018-08-16T09:16:18.089Z,2.83
2018-08-16T09:18:46.328Z,2.77
2018-08-16T09:21:15.001Z,2.67
2018-08-16T09:23:44.090Z,2.13
2018-08-16T09:26:17.967Z,2.60
2018-08-16T09:28:46.530Z,2.70
2018-08-16T09:31:26.783Z,2.40
2018-08-16T09:34:04.750Z,2.07
2018-08-16T09:36:33.212Z,2.17
2018-08-16T09:39:01.440Z,2.30
2018-08-16T09:41:30.933Z,2.70
2018-08-16T09:43:59.698Z,2.53
2018-08-16T09:47:00.038Z,2.30
2018-08-16T09:49:29.353Z,1.93
2018-08-16T09:51:59.507Z,2.40
2018-08-16T09:54:28.113Z,2.70
2018-08-16T09:56:57.970Z,2.10
2018-08-16T09:59:26.561Z,2.07
2018-08-16T10:01:55.120Z,2.13
2018-08-16T10:04:23.670Z,2.70
2018-08-16T10:06:51.891Z,2.40
2018-08-16T10:09:21.389Z,2.03
2018-08-16T10:11:50.247Z,2.07
2018-08-16T10:14:19.173Z,2.67
2018-08-16T10:16:47.414Z,2.47
2018-08-16T10:19:16.312Z,2.80
2018-08-16T10:21:45.225Z,2.47
2018-08-16T10:24:17.054Z,2.23
2018-08-16T10:26:45.597Z,2.17
2018-08-16T10:29:14.292Z,2.30
2018-08-16T10:31:43.469Z,2.50
2018-08-16T10:34:12.234Z,2.57
2018-08-16T10:36:41.167Z,2.33
2018-08-16T10:39:12.139Z,2.30
2018-08-16T10:41:40.733Z,1.87
2018-08-16T10:44:09.005Z,2.20
2018-08-16T10:46:37.557Z,2.10
2018-08-16T10:49:06.705Z,2.53
2018-08-16T10:51:34.939Z,2.27
2018-08-16T10:54:03.496Z,2.13
2018-08-16T10:56:31.939Z,2.20
2018-08-16T10:59:00.230Z,2.53
2018-08-16T11:01:29.258Z,2.30
2018-08-16T11:03:57.570Z,1.93
2018-08-16T11:06:25.789Z,1.97
2018-08-16T11:08:54.344Z,1.83
2018-08-16T11:11:22.886Z,1.67
2018-08-16T11:13:51.778Z,1.93
2018-08-16T11:16:20.003Z,2.13
2018-08-16T11:18:48.599Z,1.80
2018-08-16T11:21:16.984Z,2.07
2018-08-16T11:23:46.627Z,2.07
2018-08-16T11:26:15.171Z,2.00
2018-08-16T11:28:44.723Z,1.70
2018-08-16T11:31:13.287Z,1.70
2018-08-16T11:33:41.892Z,1.57
2018-08-16T11:36:10.781Z,2.07
2018-08-16T11:38:39.069Z,2.23
2018-08-16T11:41:07.624Z,2.13
2018-08-16T11:43:36.224Z,1.83
2018-08-16T11:46:04.448Z,1.93
2018-08-16T11:48:33.002Z,2.03
2018-08-16T11:51:01.638Z,1.80
2018-08-16T11:53:30.779Z,2.17
2018-08-16T11:55:58.988Z,1.80
2018-08-16T11:58:27.588Z,2.23
2018-08-16T12:00:56.933Z,1.57
2018-08-16T12:03:25.177Z,1.50
2018-08-16T12:05:55.268Z,1.30
2018-08-16T12:08:23.826Z,1.80
2018-08-16T12:10:52.478Z,1.80
2018-08-16T12:13:20.712Z,1.93
2018-08-16T12:15:49.002Z,1.80
2018-08-16T12:18:17.211Z,2.10
2018-08-16T12:20:45.941Z,2.13
2018-08-16T12:23:14.193Z,1.90
2018-08-16T12:25:42.757Z,1.20
2018-08-16T12:28:11.037Z,1.70
2018-08-16T12:30:39.265Z,2.07
2018-08-16T12:33:07.718Z,1.73
2018-08-16T12:35:36.046Z,2.27
2018-08-16T12:38:04.283Z,2.07
2018-08-16T12:40:32.855Z,1.63
2018-08-16T12:43:01.833Z,1.63
2018-08-16T12:45:30.726Z,1.57
2018-08-16T12:48:00.014Z,2.27
2018-08-16T12:50:28.881Z,1.57
2018-08-16T12:52:57.407Z,1.97
2018-08-16T12:55:25.964Z,2.17
2018-08-16T12:57:54.207Z,1.80
2018-08-16T13:00:22.744Z,1.90
2018-08-16T13:02:50.971Z,1.67
2018-08-16T13:05:19.522Z,1.60
2018-08-16T13:07:48.075Z,1.83
2018-08-16T13:10:16.328Z,2.50
2018-08-16T13:12:44.552Z,2.00
2018-08-16T13:15:13.239Z,1.70
2018-08-16T13:17:41.785Z,1.60
2018-08-16T13:20:11.705Z,2.70
2018-08-16T13:22:40.827Z,1.60
2018-08-16T13:25:09.715Z,1.67
2018-08-16T13:27:38.107Z,1.97
2018-08-16T13:30:08.156Z,2.10
2018-08-16T13:32:37.637Z,2.33
2018-08-16T13:35:07.493Z,2.10
2018-08-16T13:37:36.063Z,1.60
2018-08-16T13:40:05.611Z,1.90
2018-08-16T13:42:35.601Z,2.20
2018-08-16T13:45:04.585Z,2.10
2018-08-16T13:47:34.025Z,1.60
2018-08-16T13:50:02.574Z,1.50
2018-08-16T13:52:31.065Z,1.93
2018-08-16T13:54:59.735Z,1.87
2018-08-16T13:57:28.120Z,2.07
2018-08-16T13:59:56.689Z,1.87
2018-08-16T14:02:24.906Z,1.60
2018-08-16T14:04:53.688Z,1.80
2018-08-16T14:07:23.869Z,2.00
2018-08-16T14:09:52.422Z,1.87
2018-08-16T14:12:20.981Z,1.80
2018-08-16T14:14:49.845Z,1.90
2018-08-16T14:17:18.070Z,1.70
2018-08-16T14:19:47.283Z,1.93
2018-08-16T14:22:15.854Z,1.77
2018-08-16T14:24:44.073Z,1.60
2018-08-16T14:27:12.972Z,1.73
2018-08-16T14:29:41.189Z,1.93
2018-08-16T14:32:11.219Z,2.33
2018-08-16T14:34:40.456Z,1.90
2018-08-16T14:37:12.337Z,2.30
2018-08-16T14:39:41.446Z,1.90
2018-08-16T14:42:11.753Z,2.03
2018-08-16T14:44:40.298Z,2.03
2018-08-16T14:47:09.966Z,1.63
2018-08-16T14:49:38.176Z,1.63
2018-08-16T14:52:10.401Z,2.00
2018-08-16T14:54:38.857Z,1.87
2018-08-16T14:57:08.454Z,1.40
2018-08-16T14:59:38.949Z,1.70
2018-08-16T15:02:07.158Z,1.90
2018-08-16T15:04:35.826Z,2.07
2018-08-16T15:07:04.106Z,1.30
2018-08-16T15:09:32.338Z,1.17
2018-08-16T15:12:01.216Z,1.60
2018-08-16T15:14:29.513Z,1.90
2018-08-16T15:16:58.192Z,1.40
2018-08-16T15:19:26.445Z,1.80
2018-08-16T15:21:55.021Z,1.87
2018-08-16T15:24:23.671Z,1.80
2018-08-16T15:26:53.754Z,2.10
2018-08-16T15:29:21.984Z,1.50
2018-08-16T15:31:50.238Z,1.83
2018-08-16T15:34:18.913Z,2.20
2018-08-16T15:36:47.477Z,1.47
2018-08-16T15:39:16.049Z,1.40
2018-08-16T15:41:47.235Z,1.90
2018-08-16T15:44:16.121Z,1.63
2018-08-16T15:46:44.352Z,1.97
2018-08-16T15:49:12.881Z,1.50
2018-08-16T15:51:41.783Z,1.57
2018-08-16T15:54:10.001Z,1.47
2018-08-16T15:56:38.575Z,1.93
2018-08-16T15:59:07.915Z,1.83
2018-08-16T16:01:37.350Z,1.73
2018-08-16T16:04:05.918Z,1.47
2018-08-16T16:06:35.055Z,2.23
2018-08-16T16:09:03.285Z,1.90
2018-08-16T16:11:32.899Z,1.60
2018-08-16T16:14:01.982Z,1.50
2018-08-16T16:16:30.550Z,1.70
2018-08-16T16:18:59.431Z,1.47
2018-08-16T16:21:31.000Z,2.13
2018-08-16T16:24:01.689Z,1.50
2018-08-16T16:26:30.399Z,1.20
2018-08-16T16:28:59.358Z,2.07
2018-08-16T16:31:30.400Z,1.40
2018-08-16T16:33:58.632Z,1.60
2018-08-16T16:36:27.467Z,2.10
2018-08-16T16:38:56.998Z,1.67
2018-08-16T16:41:25.565Z,1.60
2018-08-16T16:43:54.446Z,1.90
2018-08-16T16:46:22.689Z,1.97
2018-08-16T16:48:51.835Z,1.80
2018-08-16T16:51:20.777Z,1.40
2018-08-16T16:53:48.993Z,1.70
2018-08-16T16:56:17.266Z,1.80
2018-08-16T16:58:45.813Z,1.67
2018-08-16T17:01:15.206Z,2.20
2018-08-16T17:03:44.662Z,1.87
2018-08-16T17:06:13.530Z,1.80
2018-08-16T17:08:42.141Z,1.47
2018-08-16T17:11:11.032Z,2.00
2018-08-16T17:13:40.225Z,1.90
2018-08-16T17:16:08.833Z,2.00
2018-08-16T17:18:38.406Z,1.70
2018-08-16T17:21:09.566Z,2.00
2018-08-16T17:23:40.274Z,2.10
2018-08-16T17:26:09.514Z,1.83
2018-08-16T17:28:38.188Z,2.00
2018-08-16T17:31:08.528Z,2.40
2018-08-16T17:33:36.797Z,1.70
2018-08-16T17:36:05.362Z,1.83
2018-08-16T17:38:33.938Z,2.73
2018-08-16T17:41:02.260Z,1.70
2018-08-16T17:43:32.351Z,2.00
2018-08-16T17:46:02.492Z,2.20
2018-08-16T17:48:32.245Z,1.80
2018-08-16T17:51:02.419Z,1.80
2018-08-16T17:53:30.661Z,3.20
2018-08-16T17:55:59.237Z,2.50
2018-08-16T17:58:27.819Z,2.27
2018-08-16T18:00:56.776Z,2.20
2018-08-16T18:03:25.854Z,2.10
2018-08-16T18:05:54.439Z,2.27
2018-08-16T18:08:23.324Z,2.30
2018-08-16T18:10:51.583Z,2.47
2018-08-16T18:13:20.132Z,2.83
2018-08-16T18:15:48.410Z,2.73
2018-08-16T18:18:16.968Z,2.60
2018-08-16T18:20:45.193Z,2.77
2018-08-16T18:23:13.401Z,2.50
2018-08-16T18:25:42.894Z,2.20
2018-08-16T18:28:11.943Z,2.67
2018-08-16T18:30:40.505Z,2.37
2018-08-16T18:33:13.146Z,3.00
2018-08-16T18:35:41.718Z,2.30
2018-08-16T18:38:10.949Z,2.50
2018-08-16T18:40:39.962Z,2.77
2018-08-16T18:43:08.530Z,3.40
2018-08-16T18:45:36.777Z,2.80
2018-08-16T18:48:05.215Z,3.20
2018-08-16T18:50:33.565Z,3.10
2018-08-16T18:53:03.090Z,2.80
2018-08-16T18:55:31.656Z,2.57
2018-08-16T18:58:00.210Z,3.40
2018-08-16T19:00:29.817Z,2.80
2018-08-16T19:02:59.158Z,2.57
2018-08-16T19:05:27.521Z,3.20
2018-08-16T19:07:56.898Z,2.80
2018-08-16T19:10:25.465Z,2.47
2018-08-16T19:12:53.742Z,3.23
2018-08-16T19:15:22.764Z,3.10
2018-08-16T19:17:51.045Z,3.17
2018-08-16T19:20:20.265Z,3.03
2018-08-16T19:22:48.557Z,2.57
2018-08-16T19:25:17.410Z,3.60
2018-08-16T19:27:46.611Z,3.93
2018-08-16T19:30:15.882Z,3.47
2018-08-16T19:32:44.146Z,3.20
2018-08-16T19:35:12.409Z,4.07
2018-08-16T19:37:41.021Z,3.10
2018-08-16T19:40:10.619Z,3.07
2018-08-16T19:42:39.795Z,3.20
2018-08-16T19:45:09.598Z,3.50
2018-08-16T19:47:37.843Z,2.90
2018-08-16T19:50:08.547Z,3.23
2018-08-16T19:52:36.823Z,4.07
2018-08-16T19:55:09.478Z,3.20
2018-08-16T19:57:37.817Z,3.77
2018-08-16T20:00:07.449Z,3.57
2018-08-16T20:02:36.366Z,3.60
2018-08-16T20:05:04.715Z,2.97
2018-08-16T20:07:33.305Z,3.33
2018-08-16T20:10:02.223Z,3.30
2018-08-16T20:12:30.645Z,3.10
2018-08-16T20:14:59.571Z,4.10
2018-08-16T20:17:28.522Z,3.37
2018-08-16T20:19:57.535Z,4.30
2018-08-16T20:22:26.310Z,2.50
2018-08-16T20:24:54.602Z,3.87
2018-08-16T20:27:24.314Z,3.20
2018-08-16T20:29:53.285Z,4.07
2018-08-16T20:32:21.868Z,3.03
2018-08-16T20:34:56.858Z,3.20
2018-08-16T20:37:25.434Z,3.23
2018-08-16T20:39:54.459Z,3.10
2018-08-16T20:42:23.673Z,6.60
2018-08-16T20:44:53.008Z,3.27
2018-08-16T20:47:24.416Z,3.30
2018-08-16T20:49:52.697Z,2.90
2018-08-16T20:52:22.882Z,2.90
2018-08-16T20:54:52.984Z,2.90
2018-08-16T20:57:22.603Z,2.53
2018-08-16T20:59:51.850Z,3.23
2018-08-16T21:02:20.680Z,3.30
2018-08-16T21:04:48.910Z,2.47
2018-08-16T21:07:17.493Z,3.67
2018-08-16T21:09:45.766Z,3.10
2018-08-16T21:12:14.274Z,3.07
2018-08-16T21:14:42.877Z,2.67
2018-08-16T21:17:11.454Z,3.70
2018-08-16T21:19:40.049Z,2.70
2018-08-16T21:22:08.275Z,3.57
2018-08-16T21:24:37.497Z,3.20
2018-08-16T21:27:06.145Z,2.73
2018-08-16T21:29:34.368Z,2.87
2018-08-16T21:32:02.595Z,2.80
2018-08-16T21:34:31.733Z,3.10
2018-08-16T21:37:02.265Z,2.97
2018-08-16T21:39:30.504Z,2.33
2018-08-16T21:41:58.747Z,2.80
2018-08-16T21:44:26.993Z,3.20
2018-08-16T21:46:55.459Z,3.23
2018-08-16T21:49:24.264Z,3.20
2018-08-16T21:51:52.510Z,3.77
2018-08-16T21:54:22.997Z,3.40
2018-08-16T21:56:51.573Z,3.57
2018-08-16T21:59:19.806Z,3.10
2018-08-16T22:01:48.050Z,3.00
2018-08-16T22:04:16.611Z,3.20
2018-08-16T22:06:56.410Z,2.80
2018-08-16T22:09:24.667Z,3.10
2018-08-16T22:11:54.151Z,2.87
2018-08-16T22:14:22.725Z,4.47
2018-08-16T22:16:51.980Z,2.93
2018-08-16T22:19:21.833Z,3.00
2018-08-16T22:21:50.868Z,2.87
2018-08-16T22:24:19.441Z,2.90
2018-08-16T22:26:48.332Z,2.47
2018-08-16T22:29:16.565Z,3.37
2018-08-16T22:31:46.097Z,2.77
2018-08-16T22:34:14.682Z,3.00
2018-08-16T22:36:43.248Z,3.20
2018-08-16T22:39:13.229Z,3.80
2018-08-16T22:41:42.374Z,3.17
2018-08-16T22:44:15.446Z,3.33
2018-08-16T22:46:45.114Z,3.10
2018-08-16T22:49:13.345Z,2.80
2018-08-16T22:51:41.611Z,3.10
2018-08-16T22:54:10.337Z,2.90
2018-08-16T22:56:39.710Z,3.53
2018-08-16T22:59:09.149Z,3.00
2018-08-16T23:01:37.369Z,3.33
2018-08-16T23:04:05.629Z,3.23
2018-08-16T23:06:33.865Z,2.47
2018-08-16T23:09:02.902Z,3.37
2018-08-16T23:11:31.748Z,2.87
